Time;durP1;ratioP1;P1;durP2;ratioP2;P2;SDS_P1;SDS_P2;PMS_P1;PMS_P2;Temp;Humidity;BMP_temperature;BMP_pressure;BME280_temperature;BME280_humidity;BME280_pressure;Samples;Min_cycle;Max_cycle;Signal;HPM_P1;HPM_P2
2023/01/06 00:02:21;;;;;;;11.80;7.30;;;;;;;2.22;78.77;100599.30;108670;1254;175044;-76
2023/01/06 00:04:56;;;;;;;11.30;6.80;;;;;;;2.23;78.73;100607.91;108813;1274;37300;-75
2023/01/06 00:07:33;;;;;;;6.20;4.10;;;;;;;2.23;78.62;100608.43;108779;1264;36959;-75
2023/01/06 00:10:07;;;;;;;6.50;4.50;;;;;;;2.25;78.59;100611.52;108842;1251;39018;-75
2023/01/06 00:12:38;;;;;;;4.20;3.80;;;;;;;2.27;78.85;100620.13;108676;1251;175035;-76
2023/01/06 00:15:16;;;;;;;3.70;3.30;;;;;;;2.27;78.69;100623.05;108796;1259;37128;-77
2023/01/06 00:17:48;;;;;;;3.40;3.00;;;;;;;2.26;78.68;100617.20;108829;1256;36214;-75
2023/01/06 00:20:19;;;;;;;3.60;2.70;;;;;;;2.22;78.43;100617.19;108821;1274;37686;-77
2023/01/06 00:22:51;;;;;;;3.90;3.10;;;;;;;2.22;78.48;100623.23;108782;1257;37120;-76
2023/01/06 00:25:25;;;;;;;3.20;2.90;;;;;;;2.21;78.43;100628.55;108814;1255;37133;-76
2023/01/06 00:27:57;;;;;;;4.10;3.20;;;;;;;2.21;78.53;100630.45;108755;1251;38000;-74
2023/01/06 00:30:29;;;;;;;5.10;3.60;;;;;;;2.19;78.34;100632.86;108877;1251;37112;-74
2023/01/06 00:33:00;;;;;;;3.50;3.20;;;;;;;2.18;78.52;100639.57;108773;1257;37089;-74
2023/01/06 00:35:31;;;;;;;3.60;3.20;;;;;;;2.17;78.50;100649.39;108790;1253;38742;-77
2023/01/06 00:38:02;;;;;;;3.50;3.10;;;;;;;2.16;78.40;100656.78;108726;1274;37120;-77
2023/01/06 00:40:33;;;;;;;3.40;3.00;;;;;;;2.13;78.39;100664.02;108619;1257;39052;-75
2023/01/06 00:43:08;;;;;;;4.90;4.30;;;;;;;2.15;78.61;100669.17;108797;1265;36954;-75
2023/01/06 00:45:40;;;;;;;10.50;7.60;;;;;;;2.16;78.61;100677.09;108768;1257;39931;-76
2023/01/06 00:48:11;;;;;;;13.20;9.00;;;;;;;2.15;78.61;100677.27;108759;1253;37035;-74
2023/01/06 00:50:43;;;;;;;7.80;6.30;;;;;;;2.15;78.52;100687.41;108790;1251;37348;-77
2023/01/06 00:53:17;;;;;;;5.30;4.00;;;;;;;2.14;78.36;100692.06;108788;1251;38818;-75
2023/01/06 00:55:49;;;;;;;3.60;3.20;;;;;;;2.13;78.32;100690.16;108810;1251;37228;-77
2023/01/06 00:58:21;;;;;;;4.30;3.90;;;;;;;2.11;78.00;100693.77;108827;1258;37172;-75
2023/01/06 01:00:55;;;;;;;3.70;3.00;;;;;;;2.05;77.64;100693.60;108855;1258;36521;-74
2023/01/06 01:03:27;;;;;;;4.00;2.90;;;;;;;1.99;77.76;100693.41;108798;1257;37037;-76
2023/01/06 01:06:01;;;;;;;3.40;2.90;;;;;;;1.99;77.96;100696.16;108804;1257;36181;-75
2023/01/06 01:08:33;;;;;;;2.70;2.50;;;;;;;2.00;77.97;100694.27;108766;1258;37077;-75
2023/01/06 01:11:05;;;;;;;5.60;2.70;;;;;;;2.00;77.81;100696.84;108842;1255;36196;-77
2023/01/06 01:13:41;;;;;;;3.10;2.80;;;;;;;1.97;77.62;100700.46;108816;1257;37536;-77
2023/01/06 01:16:12;;;;;;;3.40;2.80;;;;;;;1.96;77.89;100712.33;108127;1274;913467;-74
2023/01/06 01:18:49;;;;;;;3.40;3.10;;;;;;;1.94;77.88;100727.13;108850;1251;36617;-76
2023/01/06 01:21:20;;;;;;;3.50;3.00;;;;;;;1.91;77.70;100736.91;108849;1257;36865;-77
2023/01/06 01:23:52;;;;;;;5.70;3.90;;;;;;;1.90;77.83;100738.80;108827;1256;36170;-76
2023/01/06 01:26:23;;;;;;;5.70;4.50;;;;;;;1.89;77.90;100738.64;108829;1272;37285;-75
2023/01/06 01:28:54;;;;;;;5.10;3.50;;;;;;;1.88;77.68;100744.65;108793;1265;39725;-77
2023/01/06 01:31:26;;;;;;;6.00;4.70;;;;;;;1.87;77.67;100751.70;108836;1259;37329;-74
2023/01/06 01:33:57;;;;;;;5.00;4.10;;;;;;;1.85;77.89;100760.46;108767;1263;37342;-75
2023/01/06 01:36:29;;;;;;;4.30;3.30;;;;;;;1.85;77.84;100762.70;108844;1257;36859;-77
2023/01/06 01:39:01;;;;;;;3.50;3.20;;;;;;;1.83;77.75;100765.96;108832;1251;36094;-77
2023/01/06 01:41:39;;;;;;;2.60;2.40;;;;;;;1.80;77.71;100777.99;108690;1274;172897;-76
2023/01/06 01:44:57;;;;;;;3.40;2.80;;;;;;;1.83;77.91;100778.17;108815;1256;36998;-75
2023/01/06 01:47:49;;;;;;;4.00;3.20;;;;;;;1.81;78.05;100776.45;108764;1251;36944;-75
2023/01/06 01:50:29;;;;;;;3.30;3.00;;;;;;;1.80;78.01;100786.95;108726;1254;187596;-75
2023/01/06 01:53:08;;;;;;;3.40;3.10;;;;;;;1.78;78.09;100798.45;108821;1257;38289;-75
2023/01/06 01:55:41;;;;;;;;;;;;;;;1.75;77.95;100803.09;108826;1274;37103;-76
2023/01/06 01:58:16;;;;;;;2.80;2.40;;;;;;;1.73;78.18;100797.73;108806;1255;37093;-76
2023/01/06 02:00:49;;;;;;;3.40;3.10;;;;;;;1.76;78.29;100796.20;108744;1259;36736;-74
2023/01/06 02:03:21;;;;;;;3.40;2.90;;;;;;;1.79;78.47;100804.31;108830;1274;37086;-74
2023/01/06 02:05:54;;;;;;;3.60;3.30;;;;;;;1.82;78.26;100817.56;108825;1274;37255;-76
2023/01/06 02:08:33;;;;;;;3.50;3.20;;;;;;;1.78;77.99;100825.98;108793;1274;37180;-75
2023/01/06 02:11:05;;;;;;;3.70;3.30;;;;;;;1.77;78.15;100831.98;108897;1267;37179;-77
2023/01/06 02:13:38;;;;;;;3.70;3.00;;;;;;;1.76;78.41;100844.88;108792;1254;37046;-77
2023/01/06 02:16:22;;;;;;;3.20;2.80;;;;;;;1.76;78.47;100842.46;108848;1256;37284;-73
2023/01/06 02:19:02;;;;;;;3.80;3.00;;;;;;;1.78;78.45;100841.46;108842;1255;37481;-77
2023/01/06 02:21:46;;;;;;;3.50;3.20;;;;;;;1.80;78.55;100841.12;108813;1255;37122;-76
2023/01/06 02:24:49;;;;;;;3.60;3.30;;;;;;;1.80;78.34;100846.62;108831;1257;37073;-77
2023/01/06 02:27:46;;;;;;;4.00;3.40;;;;;;;1.78;78.31;100852.13;108827;1255;38454;-75
2023/01/06 02:30:48;;;;;;;4.20;3.60;;;;;;;1.74;78.22;100863.96;108771;1256;37295;-74
2023/01/06 02:33:26;;;;;;;4.00;3.20;;;;;;;1.70;78.31;100868.75;108789;1251;37098;-74
2023/01/06 02:36:25;;;;;;;4.00;3.00;;;;;;;1.71;78.45;100879.77;108672;1264;174844;-74
2023/01/06 02:39:19;;;;;;;4.10;3.60;;;;;;;1.71;78.48;100882.87;108811;1257;37160;-77
2023/01/06 02:41:58;;;;;;;3.40;2.90;;;;;;;1.71;78.30;100881.14;108773;1274;37071;-75
2023/01/06 02:44:30;;;;;;;3.50;3.20;;;;;;;1.72;78.47;100889.06;108802;1252;37437;-76
2023/01/06 02:47:11;;;;;;;4.30;3.70;;;;;;;1.72;78.31;100898.88;108813;1251;37175;-74
2023/01/06 02:49:51;;;;;;;4.20;3.70;;;;;;;1.69;78.09;100898.33;108845;1255;37144;-76
2023/01/06 02:52:27;;;;;;;3.50;3.20;;;;;;;1.63;77.98;100900.69;108885;1256;36812;-74
2023/01/06 02:55:02;;;;;;;3.60;3.20;;;;;;;1.60;78.05;100902.39;108793;1260;36757;-74
2023/01/06 02:57:37;;;;;;;3.40;3.10;;;;;;;1.60;78.23;100910.30;108886;1255;37223;-74
2023/01/06 03:00:15;;;;;;;3.50;2.90;;;;;;;1.63;78.30;100912.23;108688;1274;37015;-77
2023/01/06 03:02:52;;;;;;;3.90;3.50;;;;;;;1.64;78.08;100915.15;108820;1274;37081;-75
2023/01/06 03:05:24;;;;;;;3.60;3.30;;;;;;;1.61;78.04;100913.58;108808;1257;37238;-76
2023/01/06 03:07:58;;;;;;;4.10;3.70;;;;;;;1.60;77.90;100910.48;108757;1267;36821;-76
2023/01/06 03:10:30;;;;;;;3.80;3.00;;;;;;;1.58;78.04;100917.16;108676;1256;38498;-75
2023/01/06 03:13:12;;;;;;;2.90;2.60;;;;;;;1.56;77.88;100920.93;108757;1274;37090;-76
2023/01/06 03:15:46;;;;;;;3.10;2.80;;;;;;;1.53;77.68;100920.75;108838;1256;37045;-75
2023/01/06 03:18:20;;;;;;;3.40;3.10;;;;;;;1.54;77.51;100915.94;108795;1256;37138;-74
2023/01/06 03:20:52;;;;;;;3.10;2.80;;;;;;;1.53;77.57;100921.27;108819;1255;37153;-77
2023/01/06 03:23:24;;;;;;;2.80;2.60;;;;;;;1.53;77.52;100925.23;108680;1258;36571;-75
2023/01/06 03:25:56;;;;;;;3.30;2.90;;;;;;;1.53;77.65;100925.39;108814;1255;37300;-74
2023/01/06 03:28:30;;;;;;;3.10;2.80;;;;;;;1.52;77.52;100926.92;108785;1269;37236;-75
2023/01/06 03:31:13;;;;;;;3.10;2.60;;;;;;;1.50;77.50;100935.85;108843;1256;38564;-75
2023/01/06 03:33:59;;;;;;;2.90;2.50;;;;;;;1.51;77.63;100930.52;108828;1273;37060;-75
2023/01/06 03:36:41;;;;;;;3.50;2.70;;;;;;;1.49;77.42;100938.25;108807;1251;37696;-77
2023/01/06 03:39:21;;;;;;;3.30;2.90;;;;;;;1.49;77.53;100940.82;108809;1257;37014;-76
2023/01/06 03:44:52;;;;;;;4.00;3.00;;;;;;;1.48;77.68;100952.34;108871;1251;36957;-77
2023/01/06 03:47:25;;;;;;;4.00;2.90;;;;;;;1.47;77.55;100952.16;108790;1253;36677;-77
2023/01/06 03:50:00;;;;;;;3.00;2.70;;;;;;;1.49;77.62;100953.55;108841;1252;37078;-77
2023/01/06 03:52:33;;;;;;;3.20;2.90;;;;;;;1.51;77.58;100956.48;108810;1274;37154;-74
2023/01/06 03:55:07;;;;;;;3.60;3.20;;;;;;;1.52;77.65;100959.94;108828;1256;36971;-75
2023/01/06 03:57:42;;;;;;;3.10;2.80;;;;;;;1.52;77.55;100964.40;108854;1274;37349;-75
2023/01/06 04:00:18;;;;;;;3.50;3.20;;;;;;;1.51;77.76;100964.56;108850;1265;38447;-74
2023/01/06 04:02:49;;;;;;;3.40;2.90;;;;;;;1.52;77.76;100968.53;108831;1255;37069;-76
2023/01/06 04:05:23;;;;;;;2.50;2.30;;;;;;;1.52;77.64;100971.29;108810;1251;36990;-76
2023/01/06 04:07:57;;;;;;;2.90;2.60;;;;;;;1.52;77.43;100971.11;108778;1251;37062;-74
2023/01/06 04:10:28;;;;;;;2.90;2.30;;;;;;;1.52;77.16;100968.70;108795;1263;37092;-74
2023/01/06 04:13:01;;;;;;;3.50;2.90;;;;;;;1.50;77.12;100973.15;108371;1255;547406;-75
2023/01/06 04:15:37;;;;;;;3.30;2.90;;;;;;;1.48;76.84;100977.78;108803;1257;38277;-77
2023/01/06 04:18:10;;;;;;;3.50;3.20;;;;;;;1.45;76.80;100978.79;108824;1255;37030;-75
2023/01/06 04:20:42;;;;;;;2.90;2.70;;;;;;;1.42;76.63;100978.59;108828;1251;37239;-75
2023/01/06 04:23:18;;;;;;;3.00;2.70;;;;;;;1.40;76.55;100976.85;108754;1257;37356;-74
2023/01/06 04:25:54;;;;;;;3.30;3.00;;;;;;;1.40;76.78;100978.23;108858;1256;38916;-73
2023/01/06 04:28:28;;;;;;;3.40;3.10;;;;;;;1.41;76.86;100985.80;108854;1274;37511;-76
2023/01/06 04:31:01;;;;;;;3.20;3.00;;;;;;;1.40;76.63;100989.05;108839;1260;36212;-75
2023/01/06 04:33:32;;;;;;;3.20;2.90;;;;;;;1.38;76.50;100989.73;108847;1251;38569;-76
2023/01/06 04:36:06;;;;;;;3.30;3.00;;;;;;;1.36;76.46;100990.56;108849;1255;36819;-75
2023/01/06 04:38:41;;;;;;;3.20;2.90;;;;;;;1.31;76.13;100994.83;108730;1274;37084;-74
2023/01/06 04:41:12;;;;;;;2.70;2.40;;;;;;;1.26;76.02;101000.95;108806;1256;36957;-75
2023/01/06 04:43:49;;;;;;;2.80;2.60;;;;;;;1.23;76.31;100996.46;108653;1264;40382;-76
2023/01/06 04:46:23;;;;;;;3.00;2.70;;;;;;;1.26;76.56;100998.89;108759;1256;37273;-75
2023/01/06 04:48:54;;;;;;;3.30;3.00;;;;;;;1.26;76.48;100998.89;108818;1264;36960;-77
2023/01/06 04:51:28;;;;;;;4.00;3.60;;;;;;;1.26;76.51;101003.53;108817;1256;37078;-75
2023/01/06 04:54:02;;;;;;;4.00;3.50;;;;;;;1.24;76.43;101000.41;108811;1274;37362;-76
2023/01/06 04:56:33;;;;;;;3.50;3.20;;;;;;;1.22;76.48;101002.46;108832;1256;37066;-76
2023/01/06 04:59:04;;;;;;;3.40;2.90;;;;;;;1.20;76.41;101006.73;108833;1274;37448;-75
2023/01/06 05:01:37;;;;;;;3.60;3.30;;;;;;;1.18;76.56;101003.45;108766;1253;36602;-74
2023/01/06 05:04:11;;;;;;;3.40;3.10;;;;;;;1.17;76.47;101003.79;108841;1258;36971;-75
2023/01/06 05:06:43;;;;;;;3.70;3.20;;;;;;;1.13;76.41;101003.39;108822;1274;36576;-75
2023/01/06 05:09:14;;;;;;;3.80;3.40;;;;;;;1.08;76.26;100999.22;108864;1256;36245;-74
2023/01/06 05:11:45;;;;;;;3.60;3.20;;;;;;;1.04;76.50;100996.77;108733;1260;39394;-75
2023/01/06 05:14:22;;;;;;;3.40;3.10;;;;;;;0.99;76.40;100995.16;108801;1256;37329;-74
2023/01/06 05:16:54;;;;;;;3.20;2.80;;;;;;;0.98;76.57;100994.63;108810;1274;36022;-76
2023/01/06 05:19:25;;;;;;;3.70;3.40;;;;;;;0.97;76.42;100999.27;108802;1274;37071;-75
2023/01/06 05:21:59;;;;;;;3.30;3.00;;;;;;;0.97;76.60;101000.13;108832;1253;36005;-76
2023/01/06 05:24:37;;;;;;;3.60;3.20;;;;;;;0.97;76.34;100996.17;108863;1255;37102;-76
2023/01/06 05:27:09;;;;;;;3.20;2.90;;;;;;;0.91;76.07;101002.64;108853;1252;37290;-75
2023/01/06 05:29:44;;;;;;;3.40;3.10;;;;;;;0.87;76.24;101011.86;108837;1255;37528;-76
2023/01/06 05:32:15;;;;;;;3.10;2.80;;;;;;;0.83;76.25;101018.02;108795;1255;37355;-75
2023/01/06 05:34:46;;;;;;;3.40;2.70;;;;;;;0.81;76.30;101024.16;108794;1256;37062;-75
2023/01/06 05:37:19;;;;;;;2.70;2.50;;;;;;;0.80;76.40;101025.36;108804;1255;37053;-74
2023/01/06 05:39:50;;;;;;;3.60;3.30;;;;;;;0.80;76.18;101023.64;108761;1263;37138;-75
2023/01/06 05:42:21;;;;;;;4.10;3.00;;;;;;;0.79;76.31;101028.79;108812;1274;37097;-75
2023/01/06 05:44:55;;;;;;;3.70;3.20;;;;;;;0.80;76.28;101031.02;108824;1274;37094;-74
2023/01/06 05:47:27;;;;;;;3.90;3.30;;;;;;;0.77;76.24;101040.79;108800;1270;37401;-73
2023/01/06 05:49:58;;;;;;;3.30;2.80;;;;;;;0.75;76.19;101050.54;108842;1264;37295;-75
2023/01/06 05:52:30;;;;;;;2.80;2.30;;;;;;;0.73;75.97;101057.56;108808;1258;37253;-73
2023/01/06 05:55:07;;;;;;;4.20;2.80;;;;;;;0.71;75.98;101055.98;108756;1256;38298;-74
2023/01/06 05:57:38;;;;;;;3.40;3.10;;;;;;;0.71;76.12;101054.27;108840;1255;37103;-75
2023/01/06 06:00:14;;;;;;;4.60;3.10;;;;;;;0.71;76.09;101056.31;108805;1257;37471;-74
2023/01/06 06:02:46;;;;;;;3.60;2.90;;;;;;;0.69;76.24;101059.90;108817;1256;37318;-73
2023/01/06 06:05:18;;;;;;;3.50;3.20;;;;;;;0.68;76.05;101064.52;108804;1253;36135;-72
2023/01/06 06:07:55;;;;;;;3.80;3.00;;;;;;;0.68;76.28;101066.73;108795;1253;36118;-74
2023/01/06 06:10:28;;;;;;;2.60;2.40;;;;;;;0.67;76.17;101070.02;108773;1268;37251;-76
2023/01/06 06:13:00;;;;;;;2.80;2.60;;;;;;;0.67;76.36;101072.41;108777;1258;37116;-75
2023/01/06 06:15:31;;;;;;;3.30;2.90;;;;;;;0.69;76.44;101078.63;108855;1255;37044;-74
2023/01/06 06:18:04;;;;;;;3.40;3.10;;;;;;;0.70;76.53;101081.23;108805;1256;36179;-76
2023/01/06 06:20:35;;;;;;;3.60;3.10;;;;;;;0.72;76.44;101085.02;108828;1255;37156;-75
2023/01/06 06:23:06;;;;;;;4.10;3.40;;;;;;;0.74;76.46;101080.77;108821;1274;37009;-75
2023/01/06 06:25:38;;;;;;;3.80;3.40;;;;;;;0.74;76.29;101077.48;108841;1256;38192;-75
2023/01/06 06:28:13;;;;;;;4.30;3.50;;;;;;;0.72;76.22;101078.67;108816;1255;37450;-72
2023/01/06 06:30:48;;;;;;;3.30;2.90;;;;;;;0.69;76.29;101079.83;108856;1268;37364;-75
2023/01/06 06:33:23;;;;;;;3.00;2.70;;;;;;;0.67;76.39;101088.89;108788;1251;37176;-76
2023/01/06 06:35:58;;;;;;;3.90;3.20;;;;;;;0.68;76.40;101085.13;108834;1255;37165;-76
2023/01/06 06:38:32;;;;;;;3.30;3.10;;;;;;;0.69;76.40;101089.96;108797;1255;38532;-76
2023/01/06 06:41:04;;;;;;;3.50;3.00;;;;;;;0.72;76.59;101099.61;108815;1270;38984;-75
2023/01/06 06:43:38;;;;;;;4.10;3.50;;;;;;;0.74;76.65;101105.83;108694;1255;186799;-73
2023/01/06 06:46:09;;;;;;;4.70;3.60;;;;;;;0.74;76.51;101105.33;108864;1253;37131;-76
2023/01/06 06:48:44;;;;;;;7.10;3.80;;;;;;;0.74;76.52;101115.61;108771;1274;36663;-74
2023/01/06 06:51:21;;;;;;;3.70;3.40;;;;;;;0.71;76.49;101119.34;108727;1267;36815;-74
2023/01/06 06:53:53;;;;;;;4.30;3.20;;;;;;;0.70;76.64;101121.56;108820;1256;37173;-74
2023/01/06 06:56:24;;;;;;;3.10;2.80;;;;;;;0.71;76.44;101120.71;108750;1253;37026;-73
2023/01/06 06:58:58;;;;;;;3.80;3.00;;;;;;;0.70;76.35;101128.79;108827;1256;37199;-75
2023/01/06 07:01:30;;;;;;;4.90;3.60;;;;;;;0.70;76.48;101133.94;108775;1255;37309;-75
2023/01/06 07:04:02;;;;;;;4.80;3.60;;;;;;;0.72;76.58;101136.52;108846;1274;37279;-75
2023/01/06 07:06:36;;;;;;;4.00;3.40;;;;;;;0.72;76.50;101137.22;108714;1256;175176;-75
2023/01/06 07:09:08;;;;;;;3.60;3.30;;;;;;;0.72;76.69;101139.98;108842;1264;37119;-74
2023/01/06 07:11:44;;;;;;;3.10;2.60;;;;;;;0.72;76.59;101142.70;108820;1251;37242;-75
2023/01/06 07:14:17;;;;;;;3.60;3.10;;;;;;;0.74;76.42;101148.07;108823;1274;37686;-76
2023/01/06 07:16:49;;;;;;;3.80;3.40;;;;;;;0.76;76.61;101150.51;108846;1255;37105;-76
2023/01/06 07:19:20;;;;;;;4.20;3.50;;;;;;;0.77;76.58;101154.65;108801;1256;37177;-74
2023/01/06 07:21:52;;;;;;;3.70;3.10;;;;;;;0.78;76.35;101151.39;108762;1256;37176;-73
2023/01/06 07:24:23;;;;;;;5.10;3.80;;;;;;;0.78;76.54;101146.25;108836;1255;37565;-74
2023/01/06 07:26:54;;;;;;;4.60;3.60;;;;;;;0.79;76.57;101142.98;108795;1253;37063;-73
2023/01/06 07:29:30;;;;;;;4.10;3.70;;;;;;;0.78;76.72;101144.17;108837;1274;37108;-76
2023/01/06 07:32:03;;;;;;;3.60;3.00;;;;;;;0.78;76.76;101142.29;108834;1264;37137;-76
2023/01/06 07:34:37;;;;;;;4.30;3.20;;;;;;;0.80;76.98;101136.83;108708;1257;36972;-76
2023/01/06 07:37:10;;;;;;;4.00;3.30;;;;;;;0.83;76.93;101131.88;108778;1257;37418;-74
2023/01/06 07:39:43;;;;;;;3.60;3.20;;;;;;;0.84;76.60;101138.75;108821;1267;37125;-75
2023/01/06 07:42:15;;;;;;;3.60;3.20;;;;;;;0.84;76.53;101136.00;108790;1274;37530;-75
2023/01/06 07:44:46;;;;;;;3.50;3.20;;;;;;;0.83;76.23;101126.21;108809;1274;38468;-74
2023/01/06 07:47:21;;;;;;;3.90;3.50;;;;;;;0.83;76.26;101125.02;108813;1256;36999;-75
2023/01/06 07:49:52;;;;;;;4.30;3.40;;;;;;;0.82;76.31;101135.30;108810;1256;37191;-75
2023/01/06 07:52:23;;;;;;;5.00;2.90;;;;;;;0.83;76.14;101133.95;108793;1255;37894;-73
2023/01/06 07:54:58;;;;;;;3.90;3.10;;;;;;;0.85;76.33;101135.00;108813;1256;37116;-73
2023/01/06 07:57:31;;;;;;;3.20;2.80;;;;;;;0.88;76.39;101138.48;108804;1274;37234;-73
2023/01/06 08:00:05;;;;;;;4.70;3.30;;;;;;;0.95;76.24;101145.96;108848;1258;37079;-76
2023/01/06 08:02:37;;;;;;;3.90;3.50;;;;;;;1.00;76.22;101149.46;108636;1258;37473;-74
2023/01/06 08:05:13;;;;;;;5.50;4.00;;;;;;;1.01;75.88;101153.27;108827;1274;36144;-74
2023/01/06 08:07:49;;;;;;;4.30;3.40;;;;;;;1.03;76.33;101152.09;108500;1262;37421;-77
2023/01/06 08:10:23;;;;;;;4.10;3.70;;;;;;;1.05;76.45;101147.81;108650;1256;37763;-73
2023/01/06 08:12:54;;;;;;;3.50;3.20;;;;;;;1.10;76.71;101153.73;108823;1251;37190;-73
2023/01/06 08:15:26;;;;;;;4.00;2.90;;;;;;;1.13;76.75;101156.00;108831;1256;37017;-74
2023/01/06 08:17:57;;;;;;;3.50;3.10;;;;;;;1.19;76.69;101156.77;108819;1255;37019;-76
2023/01/06 08:20:28;;;;;;;3.70;3.40;;;;;;;1.22;76.68;101158.84;108834;1255;37067;-75
2023/01/06 08:23:04;;;;;;;3.50;3.20;;;;;;;1.25;76.75;101160.45;108792;1256;38370;-73
2023/01/06 08:25:35;;;;;;;4.20;3.60;;;;;;;1.26;76.35;101158.40;108815;1274;36138;-74
2023/01/06 08:28:07;;;;;;;4.30;3.90;;;;;;;1.24;76.07;101162.50;108827;1267;37755;-76
2023/01/06 08:30:41;;;;;;;5.20;3.90;;;;;;;1.23;75.95;101162.82;108830;1251;37185;-74
2023/01/06 08:33:17;;;;;;;4.40;3.30;;;;;;;1.21;76.01;101164.52;108821;1255;37045;-75
2023/01/06 08:35:51;;;;;;;3.50;3.00;;;;;;;1.22;76.09;101167.43;108882;1274;36929;-73
2023/01/06 08:38:25;;;;;;;3.60;3.20;;;;;;;1.23;76.27;101170.04;108808;1253;37577;-75
2023/01/06 08:40:58;;;;;;;3.10;2.80;;;;;;;1.24;76.24;101171.10;108855;1251;36953;-75
2023/01/06 08:43:31;;;;;;;3.60;3.30;;;;;;;1.24;75.78;101172.46;108862;1253;36358;-73
2023/01/06 08:46:07;;;;;;;3.30;3.00;;;;;;;1.21;75.69;101175.00;108856;1274;37004;-74
2023/01/06 08:48:45;;;;;;;5.20;3.60;;;;;;;1.23;75.98;101172.97;108791;1252;37705;-73
2023/01/06 08:51:42;;;;;;;4.20;3.50;;;;;;;1.26;76.00;101174.20;108839;1272;36751;-74
2023/01/06 08:54:19;;;;;;;3.20;2.90;;;;;;;1.27;75.77;101173.69;108905;1270;36964;-73
2023/01/06 08:57:02;;;;;;;5.70;3.20;;;;;;;1.29;75.92;101168.92;108716;1274;187594;-72
2023/01/06 08:59:39;;;;;;;3.80;3.40;;;;;;;1.33;75.72;101172.73;108824;1274;37349;-78
2023/01/06 09:02:14;;;;;;;6.00;4.90;;;;;;;1.36;75.75;101176.05;108908;1251;37201;-78
2023/01/06 09:04:52;;;;;;;4.10;3.40;;;;;;;1.38;75.28;101174.70;108709;1257;37303;-72
2023/01/06 09:07:35;;;;;;;4.20;3.80;;;;;;;1.38;75.17;101177.28;108852;1255;37156;-72
2023/01/06 09:10:17;;;;;;;4.20;3.40;;;;;;;1.39;74.94;101173.17;108835;1253;37001;-73
2023/01/06 09:13:12;;;;;;;3.50;2.90;;;;;;;1.41;74.83;101174.56;108815;1255;38243;-70
2023/01/06 09:15:58;;;;;;;3.80;3.40;;;;;;;1.39;74.10;101179.36;109840;1249;37014;31
2023/01/06 09:21:54;;;;;;;3.30;2.90;;;;;;;1.36;73.94;101179.66;107425;1280;37035;-75
2023/01/06 09:25:45;;;;;;;;;;;;;;;;;;;;;
2023/01/06 09:28:22;;;;;;;3.40;3.10;;;;;;;1.41;73.97;101180.58;106694;1270;66502;-71
2023/01/06 09:30:54;;;;;;;4.00;3.60;;;;;;;1.44;74.26;101174.61;107572;1278;37000;-72
2023/01/06 09:33:27;;;;;;;5.00;4.20;;;;;;;1.48;74.59;101176.04;107557;1281;37076;-73
2023/01/06 09:39:59;;;;;;;4.80;4.30;;;;;;;1.53;74.75;101176.61;108245;1282;37028;-73
2023/01/06 09:42:49;;;;;;;4.40;3.90;;;;;;;1.52;74.34;101172.98;107527;1273;37275;-73
2023/01/06 09:45:37;;;;;;;3.50;3.20;;;;;;;1.50;74.04;101170.03;107556;1273;37335;-72
2023/01/06 09:48:13;;;;;;;4.30;3.90;;;;;;;1.51;74.16;101174.85;107554;1292;37205;-74
2023/01/06 09:55:05;;;;;;;5.20;3.60;;;;;;;1.52;73.58;101177.63;107578;1286;40267;-72
2023/01/06 09:57:52;;;;;;;4.20;3.90;;;;;;;1.50;74.20;101170.89;107552;1271;37032;-71
2023/01/06 10:00:37;;;;;;;4.80;4.30;;;;;;;1.52;73.97;101164.70;107552;1276;36996;-71
2023/01/06 10:03:40;;;;;;;7.60;4.40;;;;;;;1.50;74.07;101159.20;107546;1274;37023;-71
2023/01/06 10:06:37;;;;;;;5.20;4.20;;;;;;;1.50;74.09;101164.02;107548;1293;37045;-69
2023/01/06 10:09:22;;;;;;;6.40;3.90;;;;;;;1.51;74.24;101164.38;107387;1275;37604;-70
2023/01/06 10:12:13;;;;;;;4.10;3.30;;;;;;;1.52;74.33;101164.05;107482;1293;37092;-71
2023/01/06 10:15:02;;;;;;;4.40;3.90;;;;;;;1.55;74.48;101160.64;107387;1273;37289;-75
2023/01/06 10:18:14;;;;;;;3.90;3.50;;;;;;;1.59;74.63;101151.23;107529;1271;38293;-71
2023/01/06 10:21:30;;;;;;;4.10;3.80;;;;;;;1.64;74.17;101147.67;107517;1274;37666;-71
2023/01/06 10:24:55;;;;;;;4.30;3.90;;;;;;;1.60;73.54;101150.88;107572;1273;37083;-72
2023/01/06 10:28:08;;;;;;;4.60;4.20;;;;;;;1.59;73.91;101145.02;107455;1293;36035;-71
2023/01/06 10:31:02;;;;;;;5.40;4.50;;;;;;;1.56;73.74;101138.80;107411;1293;175202;-70
2023/01/06 10:33:56;;;;;;;5.00;4.10;;;;;;;1.51;73.73;101136.33;107560;1286;36306;-70
2023/01/06 10:36:49;;;;;;;4.60;3.70;;;;;;;1.53;73.87;101133.10;107239;1280;175047;-74
2023/01/06 10:39:25;;;;;;;5.50;4.30;;;;;;;1.53;73.20;101141.18;107525;1293;36976;-70
2023/01/06 10:42:56;;;;;;;5.10;4.30;;;;;;;1.52;73.88;101144.77;107550;1274;37052;-70
2023/01/06 10:45:57;;;;;;;5.20;4.80;;;;;;;1.56;74.02;101134.84;107484;1293;37020;-70
2023/01/06 10:48:44;;;;;;;5.60;5.10;;;;;;;1.59;74.22;101130.25;107564;1273;37091;-70
2023/01/06 10:51:43;;;;;;;5.20;4.50;;;;;;;1.63;74.51;101132.70;107585;1277;38483;-73
2023/01/06 10:54:40;;;;;;;5.60;5.10;;;;;;;1.65;74.52;101129.61;107422;1274;176056;-72
2023/01/06 10:57:40;;;;;;;6.20;4.20;;;;;;;1.65;74.53;101126.86;107597;1269;37136;-70
2023/01/06 11:00:34;;;;;;;5.60;4.30;;;;;;;1.66;74.47;101120.85;107460;1274;37219;-71
2023/01/06 11:03:33;;;;;;;5.80;4.80;;;;;;;1.70;74.46;101119.69;107475;1293;37487;-72
2023/01/06 11:06:29;;;;;;;7.90;5.70;;;;;;;1.72;74.50;101122.11;107592;1284;37493;-71
2023/01/06 11:09:34;;;;;;;10.10;6.20;;;;;;;1.75;74.53;101114.76;107487;1293;37199;-70
2023/01/06 11:12:48;;;;;;;6.70;5.40;;;;;;;1.76;74.62;101116.31;107519;1276;37330;-71
2023/01/06 11:15:38;;;;;;;5.90;5.00;;;;;;;1.78;74.77;101111.36;107573;1273;36984;-73
2023/01/06 11:18:25;;;;;;;5.80;5.10;;;;;;;1.78;74.52;101111.52;107621;1271;36571;-74
2023/01/06 11:21:10;;;;;;;6.40;3.80;;;;;;;1.75;74.14;101097.89;106809;1273;915417;-75
2023/01/06 11:23:54;;;;;;;6.00;4.00;;;;;;;1.74;74.14;101094.28;107628;1293;37163;-71
2023/01/06 11:26:45;;;;;;;5.10;4.60;;;;;;;1.77;73.98;101089.30;107501;1293;175017;-73
2023/01/06 11:29:31;;;;;;;5.60;4.60;;;;;;;1.79;73.74;101079.54;107474;1293;174817;-72
2023/01/06 11:32:20;;;;;;;5.80;4.90;;;;;;;1.80;73.58;101078.67;107608;1277;37264;-71
2023/01/06 11:35:01;;;;;;;5.60;5.00;;;;;;;1.82;74.06;101082.65;107637;1283;37034;-75
2023/01/06 11:37:47;;;;;;;5.20;4.40;;;;;;;1.85;74.08;101078.55;107428;1276;37274;-72
2023/01/06 11:40:35;;;;;;;5.80;5.20;;;;;;;1.85;73.71;101067.02;107348;1283;174777;-73
2023/01/06 11:43:12;;;;;;;5.90;5.20;;;;;;;1.83;73.37;101064.08;107561;1293;38344;-75
2023/01/06 11:45:49;;;;;;;7.80;5.70;;;;;;;1.82;73.58;101064.93;107564;1284;37011;-74
2023/01/06 11:48:30;;;;;;;5.40;4.80;;;;;;;1.82;73.76;101065.79;107435;1276;36524;-72
2023/01/06 11:51:08;;;;;;;5.20;4.70;;;;;;;1.83;73.66;101065.29;107492;1276;37003;-70
2023/01/06 11:54:03;;;;;;;6.50;5.60;;;;;;;1.83;73.64;101058.92;107428;1279;37393;-72
2023/01/06 11:56:39;;;;;;;6.50;4.80;;;;;;;1.84;73.90;101060.66;107555;1293;37093;-72
2023/01/06 11:59:15;;;;;;;7.30;5.40;;;;;;;1.86;73.77;101066.34;107491;1293;37186;-73
2023/01/06 12:01:55;;;;;;;6.10;5.20;;;;;;;1.86;73.92;101062.21;107580;1293;37231;-75
2023/01/06 12:04:38;;;;;;;6.00;5.10;;;;;;;1.88;73.97;101062.92;107529;1280;37035;-71
2023/01/06 12:07:14;;;;;;;7.40;6.30;;;;;;;1.86;73.25;101057.57;107466;1280;36088;-72
2023/01/06 12:09:46;;;;;;;10.50;8.10;;;;;;;1.82;73.05;101057.88;107538;1293;37140;-73
2023/01/06 12:12:20;;;;;;;10.00;8.10;;;;;;;1.79;73.50;101051.33;107180;1282;530009;-72
2023/01/06 12:14:52;;;;;;;5.50;4.80;;;;;;;1.80;73.62;101044.61;106869;1282;912187;-73
2023/01/06 12:17:34;;;;;;;6.00;5.40;;;;;;;1.81;73.27;101043.07;107533;1277;36449;-75
2023/01/06 12:20:10;;;;;;;5.10;4.60;;;;;;;1.82;73.48;101048.92;107520;1273;37090;-75
2023/01/06 12:22:46;;;;;;;12.50;9.20;;;;;;;1.83;73.69;101049.98;107552;1293;38277;-71
2023/01/06 12:25:21;;;;;;;9.60;8.40;;;;;;;1.84;73.57;101049.98;107574;1271;37511;-73
2023/01/06 12:27:55;;;;;;;7.80;6.80;;;;;;;1.84;73.56;101047.05;107554;1277;37133;-71
2023/01/06 12:30:30;;;;;;;7.00;6.10;;;;;;;1.84;73.97;101043.96;107507;1293;37274;-70
2023/01/06 12:33:05;;;;;;;7.20;6.10;;;;;;;1.83;73.72;101039.66;107572;1293;37210;-74